Time;durP1;ratioP1;P1;durP2;ratioP2;P2;SDS_P1;SDS_P2;PMS_P1;PMS_P2;Temp;Humidity;BMP_temperature;BMP_pressure;BME280_temperature;BME280_humidity;BME280_pressure;Samples;Min_cycle;Max_cycle;Signal;HPM_P1;HPM_P2
2023/08/05 00:02:09;;;;;;;8.30;4.85;;;;;;;13.45;100.00;101723.59;5287875;28;20050;-72
2023/08/05 00:04:40;;;;;;;7.50;4.75;;;;;;;13.41;100.00;101724.06;5287831;28;20035;-72
2023/08/05 00:07:10;;;;;;;10.23;4.65;;;;;;;13.39;100.00;101715.28;5286515;28;20039;-72
2023/08/05 00:09:41;;;;;;;7.50;4.88;;;;;;;13.35;100.00;101722.00;5287041;28;20106;-71
2023/08/05 00:12:11;;;;;;;10.10;5.63;;;;;;;13.31;100.00;101720.69;5283314;28;20039;-72
2023/08/05 00:14:42;;;;;;;13.02;5.90;;;;;;;13.31;100.00;101718.81;5276741;28;20507;-72
2023/08/05 00:17:12;;;;;;;8.93;4.80;;;;;;;13.31;100.00;101715.28;5282267;28;20298;-72
2023/08/05 00:19:43;;;;;;;7.45;4.85;;;;;;;13.29;100.00;101722.66;5277860;28;20047;-72
2023/08/05 00:22:14;;;;;;;6.22;3.53;;;;;;;13.23;100.00;101712.53;5281285;28;20027;-72
2023/08/05 00:24:44;;;;;;;11.85;3.88;;;;;;;13.19;100.00;101714.69;5265337;28;20080;-71
2023/08/05 00:27:15;;;;;;;17.15;3.20;;;;;;;13.09;100.00;101714.81;5285707;28;20035;-72
2023/08/05 00:29:46;;;;;;;5.88;3.63;;;;;;;13.04;100.00;101719.84;5285324;28;20423;-71
2023/08/05 00:32:17;;;;;;;9.05;4.45;;;;;;;13.02;100.00;101716.47;5274594;28;20028;-71
2023/08/05 00:34:47;;;;;;;8.05;4.47;;;;;;;13.03;100.00;101702.00;5286697;28;20357;-71
2023/08/05 00:37:18;;;;;;;9.27;4.65;;;;;;;13.05;100.00;101700.00;5285964;28;20012;-72
2023/08/05 00:39:48;;;;;;;7.32;4.50;;;;;;;13.02;100.00;101700.31;5272746;28;20385;-72
2023/08/05 00:42:19;;;;;;;10.82;4.80;;;;;;;12.99;100.00;101695.22;5286681;28;20020;-72
2023/08/05 00:44:49;;;;;;;9.65;5.40;;;;;;;12.94;100.00;101698.41;5273146;28;20020;-72
2023/08/05 00:47:20;;;;;;;11.20;5.57;;;;;;;12.93;100.00;101695.88;5267857;28;20049;-72
2023/08/05 00:49:52;;;;;;;76.38;8.13;;;;;;;12.90;100.00;101691.69;5285765;28;20019;-72
2023/08/05 00:52:23;;;;;;;12.75;4.60;;;;;;;12.84;100.00;101681.53;5286261;28;20610;-72
2023/08/05 00:54:54;;;;;;;10.55;5.82;;;;;;;12.79;100.00;101680.31;5286506;28;20019;-71
2023/08/05 00:57:25;;;;;;;10.55;4.95;;;;;;;12.76;100.00;101686.03;5285755;28;20085;-72
2023/08/05 00:59:56;;;;;;;11.52;5.25;;;;;;;12.70;100.00;101677.59;5286044;28;20016;-70
2023/08/05 01:02:26;;;;;;;11.77;5.82;;;;;;;12.68;100.00;101676.91;5286120;28;20881;-71
2023/08/05 01:04:57;;;;;;;10.65;6.30;;;;;;;12.61;100.00;101678.56;5286476;28;20016;-70
2023/08/05 01:07:27;;;;;;;11.35;6.70;;;;;;;12.58;100.00;101673.47;5286136;28;20034;-71
2023/08/05 01:09:58;;;;;;;12.60;5.85;;;;;;;12.53;100.00;101672.28;5286124;28;20027;-72
2023/08/05 01:12:29;;;;;;;12.45;5.78;;;;;;;12.51;100.00;101677.81;5285884;28;20072;-71
2023/08/05 01:14:59;;;;;;;11.23;5.75;;;;;;;12.59;100.00;101688.63;5286351;28;20116;-70
2023/08/05 01:17:30;;;;;;;11.27;5.82;;;;;;;12.61;100.00;101685.78;5285534;28;20019;-71
2023/08/05 01:20:01;;;;;;;12.32;5.95;;;;;;;12.66;100.00;101672.69;5285871;28;20060;-72
2023/08/05 01:22:53;;;;;;;11.23;5.60;;;;;;;12.64;100.00;101685.47;5286258;28;20110;-72
2023/08/05 01:25:40;;;;;;;9.40;4.90;;;;;;;12.63;100.00;101690.00;5285265;28;20053;-71
2023/08/05 01:28:12;;;;;;;9.23;5.07;;;;;;;12.64;100.00;101696.22;5285808;28;20575;-71
2023/08/05 01:30:44;;;;;;;7.70;4.63;;;;;;;12.62;100.00;101691.00;5285881;28;20019;-71
2023/08/05 01:33:18;;;;;;;7.20;4.47;;;;;;;12.57;100.00;101689.81;5286117;28;20026;-71
2023/08/05 01:35:48;;;;;;;8.15;5.15;;;;;;;12.53;100.00;101686.56;5285029;28;20567;-71
2023/08/05 01:38:19;;;;;;;6.88;4.57;;;;;;;12.47;100.00;101687.22;5285447;28;20024;-71
2023/08/05 01:40:49;;;;;;;6.15;3.58;;;;;;;12.45;100.00;101686.53;5286265;28;20022;-71
2023/08/05 01:43:20;;;;;;;13.13;4.32;;;;;;;12.41;100.00;101683.31;5285876;28;20024;-71
2023/08/05 01:45:50;;;;;;;8.48;3.50;;;;;;;12.34;100.00;101686.78;5285390;28;20344;-71
2023/08/05 01:48:21;;;;;;;22.90;5.43;;;;;;;12.36;100.00;101684.78;5278054;28;20086;-71
2023/08/05 01:50:51;;;;;;;7.43;4.10;;;;;;;12.37;100.00;101673.03;5259797;28;20028;-70
2023/08/05 01:53:22;;;;;;;14.63;3.50;;;;;;;12.33;100.00;101671.63;5273374;28;20110;-71
2023/08/05 01:55:53;;;;;;;42.63;4.32;;;;;;;12.30;100.00;101666.56;5285150;28;20019;-71
2023/08/05 01:58:23;;;;;;;72.40;6.47;;;;;;;12.26;100.00;101657.97;5285228;28;20019;-71
2023/08/05 02:00:54;;;;;;;129.50;5.65;;;;;;;12.23;100.00;101654.75;5285118;28;20027;-71
2023/08/05 02:03:25;;;;;;;20.45;3.75;;;;;;;12.18;100.00;101658.75;5285596;28;20378;-71
2023/08/05 02:05:55;;;;;;;76.93;5.25;;;;;;;12.13;100.00;101660.22;5284891;28;20077;-71
2023/08/05 02:08:26;;;;;;;19.45;3.75;;;;;;;12.11;100.00;101651.47;5285702;28;20373;-71
2023/08/05 02:10:56;;;;;;;67.63;4.80;;;;;;;12.25;100.00;101650.91;5274901;28;20023;-71
2023/08/05 02:13:27;;;;;;;8.50;3.83;;;;;;;12.26;100.00;101646.38;5285699;28;20024;-71
2023/08/05 02:15:58;;;;;;;7.72;3.53;;;;;;;12.24;100.00;101645.69;5271385;28;20016;-71
2023/08/05 02:18:29;;;;;;;7.03;3.88;;;;;;;12.20;100.00;101639.78;5285833;28;20046;-71
2023/08/05 02:21:01;;;;;;;34.90;5.68;;;;;;;12.22;100.00;101636.94;5285365;28;20106;-71
2023/08/05 02:23:32;;;;;;;14.88;3.40;;;;;;;12.19;100.00;101625.47;5284851;28;20050;-72
2023/08/05 02:26:02;;;;;;;7.00;4.40;;;;;;;12.19;100.00;101620.09;5284929;28;20031;-71
2023/08/05 02:28:33;;;;;;;17.48;4.70;;;;;;;12.19;100.00;101617.41;5271569;28;20027;-71
2023/08/05 02:31:04;;;;;;;28.27;5.97;;;;;;;12.21;100.00;101614.56;5273135;28;20038;-71
2023/08/05 02:33:34;;;;;;;29.60;4.85;;;;;;;12.19;100.00;101609.31;5277770;28;20081;-71
2023/08/05 02:36:05;;;;;;;36.00;4.30;;;;;;;12.19;100.00;101613.88;5277148;28;20030;-72
2023/08/05 02:38:36;;;;;;;55.55;4.38;;;;;;;12.18;100.00;101604.94;5285413;28;20019;-71
2023/08/05 02:41:08;;;;;;;6.95;2.60;;;;;;;12.16;100.00;101606.13;5285251;28;20031;-72
2023/08/05 02:43:38;;;;;;;6.25;3.45;;;;;;;12.12;100.00;101613.66;5285409;28;20085;-72
2023/08/05 02:46:09;;;;;;;11.77;5.03;;;;;;;12.15;100.00;101615.22;5284670;28;20047;-72
2023/08/05 02:48:39;;;;;;;10.35;4.85;;;;;;;12.15;100.00;101615.22;5284927;28;20055;-71
2023/08/05 02:51:10;;;;;;;9.77;5.07;;;;;;;12.21;100.00;101616.41;5285041;28;20085;-71
2023/08/05 02:53:40;;;;;;;5.65;3.67;;;;;;;12.25;100.00;101596.25;5285245;28;20378;-71
2023/08/05 02:56:11;;;;;;;6.80;3.65;;;;;;;12.27;100.00;101596.94;5279956;28;20048;-71
2023/08/05 02:58:41;;;;;;;5.30;3.08;;;;;;;12.31;100.00;101598.31;5276583;28;20404;-71
2023/08/05 03:01:12;;;;;;;4.75;2.95;;;;;;;12.33;100.00;101604.38;5284853;28;20042;-71
2023/08/05 03:03:42;;;;;;;13.82;4.28;;;;;;;12.36;100.00;101604.91;5289053;28;20489;-71
2023/08/05 03:06:13;;;;;;;6.50;3.65;;;;;;;12.39;100.00;101604.56;5288422;28;20024;-71
2023/08/05 03:08:43;;;;;;;6.03;3.50;;;;;;;12.40;100.00;101605.44;5288653;28;20041;-71
2023/08/05 03:11:14;;;;;;;8.80;4.22;;;;;;;12.40;100.00;101600.06;5261070;28;20496;-72
2023/08/05 03:13:44;;;;;;;8.05;3.97;;;;;;;12.41;100.00;101599.06;5283783;28;20027;-71
2023/08/05 03:16:15;;;;;;;7.00;4.68;;;;;;;12.38;100.00;101593.97;5288188;28;20028;-71
2023/08/05 03:18:46;;;;;;;8.50;4.90;;;;;;;12.38;100.00;101583.22;5274934;28;20041;-72
2023/08/05 03:21:16;;;;;;;10.02;5.20;;;;;;;12.33;100.00;101574.78;5288637;28;20026;-72
2023/08/05 03:23:47;;;;;;;12.65;4.82;;;;;;;12.28;100.00;101574.41;5288271;28;20255;-72
2023/08/05 03:26:17;;;;;;;59.08;6.18;;;;;;;12.22;100.00;101581.28;5287669;28;20041;-72
2023/08/05 03:28:48;;;;;;;110.90;7.47;;;;;;;12.16;100.00;101577.38;5288121;28;20407;-72
2023/08/05 03:31:18;;;;;;;11.45;4.00;;;;;;;12.14;100.00;101576.69;5288661;28;20023;-72
2023/08/05 03:33:49;;;;;;;7.88;3.45;;;;;;;12.13;100.00;101574.16;5270171;28;20032;-72
2023/08/05 03:36:19;;;;;;;11.18;5.05;;;;;;;12.14;100.00;101570.47;5287500;28;20023;-72
2023/08/05 03:38:51;;;;;;;9.18;5.63;;;;;;;12.13;100.00;101575.00;5269734;28;20021;-72
2023/08/05 03:41:22;;;;;;;9.00;5.05;;;;;;;12.15;100.00;101570.31;5287986;28;20032;-72
2023/08/05 03:43:52;;;;;;;7.07;3.60;;;;;;;12.16;100.00;101572.00;5259239;28;20397;-71
2023/08/05 03:46:23;;;;;;;7.72;4.45;;;;;;;12.16;100.00;101566.63;5284842;28;20020;-72
2023/08/05 03:48:55;;;;;;;10.85;6.32;;;;;;;12.20;100.00;101559.09;5287498;28;20508;-72
2023/08/05 03:51:27;;;;;;;42.65;4.82;;;;;;;12.21;100.00;101560.78;5287984;28;20055;-72
2023/08/05 03:53:57;;;;;;;17.77;4.47;;;;;;;12.21;100.00;101554.53;5287876;28;20031;-71
2023/08/05 03:56:28;;;;;;;18.55;5.40;;;;;;;12.18;100.00;101545.78;5287852;28;20550;-71
2023/08/05 03:58:58;;;;;;;106.60;9.40;;;;;;;12.14;100.00;101528.25;5274065;28;20489;-72
2023/08/05 04:01:30;;;;;;;10.23;6.05;;;;;;;12.17;100.00;101533.34;5287373;28;20043;-72
2023/08/05 04:04:00;;;;;;;13.10;6.78;;;;;;;12.20;100.00;101526.81;5287770;28;20040;-72
2023/08/05 04:06:31;;;;;;;12.75;6.68;;;;;;;12.26;100.00;101530.69;5277360;28;20033;-72
2023/08/05 04:09:05;;;;;;;15.82;6.60;;;;;;;12.29;100.00;101530.34;5283223;28;20046;-72
2023/08/05 04:11:37;;;;;;;12.68;6.10;;;;;;;12.31;100.00;101529.22;5285900;28;20059;-72
2023/08/05 04:14:08;;;;;;;17.85;7.60;;;;;;;12.33;100.00;101526.34;5284206;28;20032;-72
2023/08/05 04:16:40;;;;;;;42.30;7.68;;;;;;;12.35;100.00;101517.13;5284082;28;20042;-71
2023/08/05 04:19:11;;;;;;;58.13;7.95;;;;;;;12.36;100.00;101512.59;5282283;28;20085;-72
2023/08/05 04:21:46;;;;;;;22.88;7.00;;;;;;;12.36;100.00;101509.91;5271946;28;20057;-71
2023/08/05 04:24:19;;;;;;;;;;;;;;;12.37;100.00;101511.56;5291920;28;20027;-71
2023/08/05 04:26:50;;;;;;;22.40;10.35;;;;;;;12.41;100.00;101508.41;5286347;28;19912;-71
2023/08/05 04:29:22;;;;;;;23.73;10.70;;;;;;;12.45;100.00;101500.84;5281100;28;20186;-71
2023/08/05 04:31:53;;;;;;;21.98;10.27;;;;;;;12.50;100.00;101503.91;5290154;28;20028;-71
2023/08/05 04:34:24;;;;;;;27.13;12.07;;;;;;;12.55;100.00;101504.25;5288492;28;20023;-72
2023/08/05 04:36:54;;;;;;;22.75;10.95;;;;;;;12.61;100.00;101503.59;5287932;28;20020;-72
2023/08/05 04:39:25;;;;;;;22.67;11.00;;;;;;;12.64;100.00;101505.94;5288670;28;20392;-72
2023/08/05 04:41:55;;;;;;;24.63;10.68;;;;;;;12.67;100.00;101494.00;5289674;28;20087;-71
2023/08/05 04:44:26;;;;;;;30.58;12.00;;;;;;;12.70;100.00;101486.47;5276456;28;20049;-71
2023/08/05 04:46:57;;;;;;;23.33;11.13;;;;;;;12.68;100.00;101482.22;5289997;28;20388;-72
2023/08/05 04:49:27;;;;;;;26.40;12.05;;;;;;;12.73;100.00;101476.34;5276068;28;20026;-71
2023/08/05 04:51:59;;;;;;;35.00;10.32;;;;;;;12.74;100.00;101478.03;5290756;28;20019;-71
2023/08/05 04:54:29;;;;;;;24.98;11.23;;;;;;;12.78;100.00;101474.84;5291143;28;20024;-71
2023/08/05 04:56:59;;;;;;;31.75;11.25;;;;;;;12.87;100.00;101473.03;5287730;28;20144;-72
2023/08/05 04:59:30;;;;;;;21.67;9.88;;;;;;;12.96;100.00;101466.66;5287813;28;20098;-73
2023/08/05 05:02:01;;;;;;;24.42;12.13;;;;;;;12.99;100.00;101469.00;5286820;28;20039;-72
2023/08/05 05:04:31;;;;;;;28.40;11.52;;;;;;;13.09;100.00;101464.28;5286916;28;20027;-71
2023/08/05 05:07:02;;;;;;;24.65;10.98;;;;;;;13.15;100.00;101460.94;5289793;28;20077;-72
2023/08/05 05:09:33;;;;;;;22.75;10.55;;;;;;;13.30;100.00;101471.03;5287097;28;20111;-71
2023/08/05 05:12:04;;;;;;;26.00;11.32;;;;;;;13.38;100.00;101473.75;5260542;28;20088;-71
2023/08/05 05:14:34;;;;;;;22.67;10.82;;;;;;;13.44;100.00;101476.59;5286426;28;20646;-71
2023/08/05 05:17:05;;;;;;;23.55;11.38;;;;;;;13.53;100.00;101472.06;5280757;28;20043;-72
2023/08/05 05:19:35;;;;;;;23.48;10.10;;;;;;;13.62;100.00;101471.03;5285558;28;20362;-72
2023/08/05 05:22:06;;;;;;;22.98;10.68;;;;;;;13.67;100.00;101468.66;5286407;28;20072;-72
2023/08/05 05:24:36;;;;;;;22.95;11.07;;;;;;;13.72;100.00;101458.22;5285365;28;20484;-72
2023/08/05 05:27:07;;;;;;;24.52;10.43;;;;;;;13.76;100.00;101452.47;5285380;28;20038;-72
2023/08/05 05:29:38;;;;;;;22.23;9.93;;;;;;;13.84;100.00;101453.28;5285948;28;20023;-72
2023/08/05 05:32:08;;;;;;;18.17;9.63;;;;;;;13.90;100.00;101457.97;5272711;28;20114;-72
2023/08/05 05:34:39;;;;;;;22.67;10.38;;;;;;;13.97;100.00;101448.19;5286152;28;20023;-72
2023/08/05 05:37:10;;;;;;;20.80;10.40;;;;;;;14.04;100.00;101432.13;5285406;28;20030;-72
2023/08/05 05:39:41;;;;;;;18.90;9.15;;;;;;;14.09;100.00;101437.00;5285935;28;20023;-72
2023/08/05 05:42:11;;;;;;;16.70;9.38;;;;;;;14.16;100.00;101436.16;5286335;28;20496;-71
2023/08/05 05:44:43;;;;;;;17.73;9.35;;;;;;;14.23;100.00;101431.72;5286546;28;20016;-72
2023/08/05 05:47:15;;;;;;;19.33;10.20;;;;;;;14.32;100.00;101434.41;5285985;28;20395;-71
2023/08/05 05:49:46;;;;;;;27.73;10.23;;;;;;;14.35;100.00;101428.63;5280484;28;20028;-72
2023/08/05 05:52:16;;;;;;;19.05;9.73;;;;;;;14.45;100.00;101434.63;5277494;28;20015;-72
2023/08/05 05:54:47;;;;;;;20.02;9.32;;;;;;;14.48;100.00;101428.94;5285893;28;20038;-72
2023/08/05 05:57:19;;;;;;;27.85;10.90;;;;;;;14.55;100.00;101438.00;5285333;28;20473;-72
2023/08/05 05:59:49;;;;;;;17.30;9.95;;;;;;;14.64;100.00;101436.94;5285797;28;20028;-72
2023/08/05 06:02:20;;;;;;;24.15;10.38;;;;;;;14.67;100.00;101439.28;5272470;28;20027;-72
2023/08/05 06:04:50;;;;;;;22.23;10.77;;;;;;;14.80;100.00;101440.53;5285681;28;20032;-72
2023/08/05 06:07:21;;;;;;;22.27;10.60;;;;;;;14.85;100.00;101438.13;5285175;28;20031;-72
2023/08/05 06:09:52;;;;;;;17.92;9.25;;;;;;;14.92;100.00;101442.66;5285771;28;20032;-72
2023/08/05 06:12:24;;;;;;;20.40;10.02;;;;;;;14.98;100.00;101443.78;5272001;28;20184;-72
2023/08/05 06:14:55;;;;;;;18.27;9.50;;;;;;;15.06;100.00;101438.34;5285298;28;20031;-73
2023/08/05 06:17:26;;;;;;;24.05;10.48;;;;;;;15.08;100.00;101438.16;5285201;28;20020;-72
2023/08/05 06:19:57;;;;;;;16.15;8.73;;;;;;;15.14;100.00;101446.34;5285422;28;20122;-72
2023/08/05 06:22:27;;;;;;;18.30;9.05;;;;;;;15.16;100.00;101436.22;5285776;28;20118;-72
2023/08/05 06:24:58;;;;;;;21.90;9.25;;;;;;;15.26;100.00;101434.09;5285257;28;20177;-72
2023/08/05 06:27:29;;;;;;;18.73;8.70;;;;;;;15.29;100.00;101438.28;5266457;28;20027;-73
2023/08/05 06:30:00;;;;;;;16.67;8.57;;;;;;;15.34;100.00;101441.28;5282150;28;20024;-72
2023/08/05 06:32:30;;;;;;;16.55;8.93;;;;;;;15.37;100.00;101438.22;5275300;28;20024;-72
2023/08/05 06:35:01;;;;;;;21.08;8.93;;;;;;;15.32;100.00;101432.53;5285521;28;20477;-72
2023/08/05 06:37:31;;;;;;;21.58;9.65;;;;;;;15.44;100.00;101430.22;5288934;28;20171;-72
2023/08/05 06:40:02;;;;;;;14.63;9.02;;;;;;;15.56;100.00;101428.72;5289172;28;20031;-72
2023/08/05 06:42:33;;;;;;;16.52;8.63;;;;;;;15.65;100.00;101430.34;5271508;28;20385;-72
2023/08/05 06:45:04;;;;;;;17.90;8.82;;;;;;;15.69;100.00;101428.13;5289285;28;20024;-72
2023/08/05 06:47:35;;;;;;;13.48;7.50;;;;;;;15.63;100.00;101434.25;5275659;28;20045;-72
2023/08/05 06:50:07;;;;;;;15.13;8.18;;;;;;;15.72;100.00;101428.59;5289469;28;20380;-72
2023/08/05 06:52:38;;;;;;;13.38;8.25;;;;;;;15.67;100.00;101425.63;5290240;28;20055;-71
2023/08/05 06:55:08;;;;;;;13.30;6.88;;;;;;;15.72;100.00;101419.66;5289439;28;20066;-72
2023/08/05 06:57:39;;;;;;;13.10;6.85;;;;;;;15.84;100.00;101417.31;5288740;28;20026;-72
2023/08/05 07:00:10;;;;;;;21.98;8.48;;;;;;;15.88;100.00;101418.63;5289170;28;20441;-72
2023/08/05 07:02:41;;;;;;;15.95;7.50;;;;;;;15.77;100.00;101404.53;5288139;28;20080;-72
2023/08/05 07:05:11;;;;;;;14.48;7.18;;;;;;;15.86;100.00;101401.72;5284901;28;20019;-71
2023/08/05 07:07:42;;;;;;;19.95;7.22;;;;;;;15.86;100.00;101401.72;5287817;28;20032;-72
2023/08/05 07:10:12;;;;;;;13.30;7.10;;;;;;;15.89;100.00;101393.22;5287541;28;20480;-72
2023/08/05 07:12:43;;;;;;;16.13;6.70;;;;;;;15.86;100.00;101391.72;5274751;28;20026;-72
2023/08/05 07:15:13;;;;;;;14.57;6.70;;;;;;;15.95;100.00;101403.31;5288307;28;20027;-71
2023/08/05 07:17:44;;;;;;;13.45;6.57;;;;;;;16.21;100.00;101402.78;5288377;28;20028;-71
2023/08/05 07:20:15;;;;;;;12.30;6.68;;;;;;;16.64;100.00;101395.59;5275338;28;20385;-72
2023/08/05 07:22:45;;;;;;;15.50;6.30;;;;;;;16.82;100.00;101392.47;5288972;28;20122;-71
2023/08/05 07:25:16;;;;;;;11.50;6.47;;;;;;;16.93;100.00;101383.81;5283849;28;20043;-71
2023/08/05 07:27:46;;;;;;;13.88;6.13;;;;;;;17.16;100.00;101372.72;5266690;28;20043;-71
2023/08/05 07:30:17;;;;;;;15.32;6.45;;;;;;;17.07;100.00;101380.19;5273038;28;20077;-72
2023/08/05 07:32:47;;;;;;;18.92;7.32;;;;;;;17.13;100.00;101373.13;5288525;28;20397;-72
2023/08/05 07:35:18;;;;;;;11.10;6.75;;;;;;;17.16;100.00;101367.31;5288394;28;20031;-72
2023/08/05 07:37:48;;;;;;;13.05;6.72;;;;;;;17.16;100.00;101371.88;5287804;28;20031;-72
2023/08/05 07:40:19;;;;;;;12.63;7.13;;;;;;;17.00;100.00;101370.31;5288107;28;20481;-72
2023/08/05 07:42:50;;;;;;;14.05;7.38;;;;;;;16.96;100.00;101360.88;5288857;28;20032;-72
2023/08/05 07:45:21;;;;;;;16.20;7.25;;;;;;;17.23;100.00;101362.78;5288374;28;20020;-72
2023/08/05 07:47:52;;;;;;;14.80;6.22;;;;;;;17.32;100.00;101360.75;5286950;28;20028;-72
2023/08/05 07:50:24;;;;;;;11.10;6.85;;;;;;;17.68;100.00;101351.59;5288528;28;20029;-72
2023/08/05 07:52:54;;;;;;;15.95;7.05;;;;;;;17.80;100.00;101353.56;5287680;28;20019;-72
2023/08/05 07:55:30;;;;;;;15.23;7.35;;;;;;;17.87;100.00;101350.84;5288072;28;20015;-72
2023/08/05 07:58:01;;;;;;;16.13;6.75;;;;;;;17.78;100.00;101350.22;5281427;28;20098;-71
2023/08/05 08:00:31;;;;;;;11.65;6.40;;;;;;;17.89;100.00;101342.53;5281146;28;20051;-72
2023/08/05 08:03:02;;;;;;;12.63;6.00;;;;;;;18.02;100.00;101348.00;5286512;28;20023;-72
2023/08/05 08:05:32;;;;;;;13.98;7.10;;;;;;;18.08;100.00;101345.31;5281034;28;20438;-71
2023/08/05 08:08:03;;;;;;;13.95;6.20;;;;;;;17.82;100.00;101335.22;5279113;28;20054;-72
2023/08/05 08:10:34;;;;;;;15.02;6.55;;;;;;;17.89;100.00;101337.09;5287685;28;20066;-72
2023/08/05 08:13:05;;;;;;;16.52;7.57;;;;;;;17.90;100.00;101333.34;5269791;28;20037;-72
2023/08/05 08:15:35;;;;;;;12.35;6.25;;;;;;;18.08;100.00;101339.06;5286907;28;20465;-72
2023/08/05 08:18:06;;;;;;;13.25;7.40;;;;;;;17.93;100.00;101322.94;5287022;28;20080;-72
2023/08/05 08:20:36;;;;;;;11.32;6.15;;;;;;;18.11;100.00;101328.59;5287480;28;20068;-72
2023/08/05 08:23:07;;;;;;;10.50;5.30;;;;;;;18.60;100.00;101310.31;5287496;28;20055;-73
2023/08/05 08:25:37;;;;;;;10.23;5.38;;;;;;;19.11;100.00;101298.84;5287244;28;20023;-73
2023/08/05 08:28:08;;;;;;;9.00;5.38;;;;;;;19.59;100.00;101303.97;5286265;28;20031;-72
2023/08/05 08:30:39;;;;;;;11.65;5.22;;;;;;;19.53;100.00;101296.63;5287220;28;20020;-72
2023/08/05 08:33:09;;;;;;;9.98;5.07;;;;;;;19.59;100.00;101291.22;5287217;28;20028;-72
2023/08/05 08:35:40;;;;;;;10.48;4.78;;;;;;;19.40;100.00;101283.91;5286994;28;20601;-73
2023/08/05 08:38:10;;;;;;;9.00;4.47;;;;;;;19.35;100.00;101289.16;5285695;28;20532;-73
2023/08/05 08:41:02;;;;;;;9.30;4.35;;;;;;;19.20;100.00;101283.97;5284037;28;20041;-72
2023/08/05 08:43:34;;;;;;;10.48;4.35;;;;;;;18.85;100.00;101270.63;5266114;28;20028;-73
2023/08/05 08:46:05;;;;;;;8.25;4.15;;;;;;;18.85;100.00;101269.81;5279182;28;20015;-73
2023/08/05 08:48:36;;;;;;;11.73;4.38;;;;;;;18.93;100.00;101260.59;5275271;28;20023;-73
2023/08/05 08:51:08;;;;;;;11.18;4.15;;;;;;;19.01;100.00;101263.09;5286558;28;20381;-73
2023/08/05 08:53:40;;;;;;;8.60;3.88;;;;;;;19.07;100.00;101254.91;5276418;28;20031;-73
2023/08/05 08:56:11;;;;;;;10.30;4.03;;;;;;;19.11;100.00;101255.31;5269634;28;20063;-72
2023/08/05 08:58:42;;;;;;;9.00;3.65;;;;;;;18.89;100.00;101254.75;5286806;28;20055;-73
2023/08/05 09:01:16;;;;;;;5.95;3.63;;;;;;;18.72;100.00;101248.88;5285561;28;20035;-73
2023/08/05 09:03:51;;;;;;;9.83;3.37;;;;;;;18.57;100.00;101250.97;5272795;28;20594;-72
2023/08/05 09:06:23;;;;;;;;;;;;;;;18.54;100.00;101256.81;5286139;28;20435;-73
2023/08/05 09:08:54;;;;;;;5.40;3.00;;;;;;;18.82;100.00;101249.28;5275908;28;20376;-72
2023/08/05 09:11:25;;;;;;;8.57;2.88;;;;;;;19.07;100.00;101256.78;5285160;28;20034;-73
2023/08/05 09:13:55;;;;;;;11.25;3.42;;;;;;;19.24;100.00;101240.88;5284869;28;20019;-72
2023/08/05 09:16:27;;;;;;;6.93;3.00;;;;;;;19.52;100.00;101243.25;5283526;28;20051;-72
2023/08/05 09:18:57;;;;;;;5.97;2.83;;;;;;;19.32;100.00;101232.47;5283112;28;20032;-73
2023/08/05 09:21:28;;;;;;;3.28;2.40;;;;;;;19.61;100.00;101236.56;5285546;28;20354;-72
2023/08/05 09:23:59;;;;;;;6.68;2.80;;;;;;;19.84;100.00;101230.59;5285428;28;20031;-73
2023/08/05 09:26:33;;;;;;;4.40;2.60;;;;;;;19.68;100.00;101234.66;5283120;28;20019;-72
2023/08/05 09:29:04;;;;;;;8.55;2.63;;;;;;;19.38;100.00;101229.72;5285775;28;20467;-73
2023/08/05 09:31:35;;;;;;;7.68;2.70;;;;;;;19.31;100.00;101223.47;5285375;28;20115;-73
2023/08/05 09:34:08;;;;;;;8.32;2.17;;;;;;;19.15;100.00;101219.34;5275313;28;20620;-72
2023/08/05 09:36:39;;;;;;;4.18;2.30;;;;;;;19.20;100.00;101207.81;5271465;28;20039;-73
2023/08/05 09:39:13;;;;;;;6.03;2.63;;;;;;;19.37;100.00;101208.16;5289418;27;20405;-73
2023/08/05 09:42:02;;;;;;;5.50;2.42;;;;;;;19.60;100.00;101205.78;5287773;27;20023;-73
2023/08/05 09:44:34;;;;;;;4.10;2.08;;;;;;;20.17;100.00;101201.25;5285694;27;20031;-73
2023/08/05 09:47:07;;;;;;;6.32;2.45;;;;;;;20.26;100.00;101188.19;5259041;28;20030;-72
2023/08/05 09:49:38;;;;;;;6.47;2.00;;;;;;;20.25;100.00;101186.53;5284823;28;20046;-73
2023/08/05 09:52:11;;;;;;;4.22;2.08;;;;;;;19.83;100.00;101183.47;5278379;28;20042;-73
2023/08/05 09:54:44;;;;;;;6.35;2.30;;;;;;;19.60;100.00;101183.19;5285523;28;20106;-73
2023/08/05 09:57:15;;;;;;;7.78;2.80;;;;;;;19.27;100.00;101175.16;5284806;28;20158;-73
2023/08/05 09:59:47;;;;;;;5.63;2.13;;;;;;;19.26;100.00;101171.59;5284919;28;20027;-73
2023/08/05 10:02:25;;;;;;;4.28;1.90;;;;;;;18.86;100.00;101179.03;5289547;27;20110;-73
2023/08/05 10:04:56;;;;;;;7.65;1.92;;;;;;;18.93;100.00;101165.47;5284603;28;20024;-73
2023/08/05 10:07:27;;;;;;;5.63;2.58;;;;;;;18.93;100.00;101173.63;5280188;28;20032;-74
2023/08/05 10:10:00;;;;;;;4.68;1.98;;;;;;;18.92;100.00;101180.91;5266168;28;20031;-73
2023/08/05 10:12:37;;;;;;;4.28;2.20;;;;;;;18.70;100.00;101172.19;5258340;28;20035;-73
2023/08/05 10:15:12;;;;;;;3.42;2.15;;;;;;;18.50;100.00;101177.59;5275868;28;20028;-73
2023/08/05 10:17:42;;;;;;;6.25;2.60;;;;;;;18.42;100.00;101175.09;5289050;27;20480;-73
2023/08/05 10:20:13;;;;;;;6.78;2.30;;;;;;;18.41;100.00;101165.28;5288942;28;20115;-73
2023/08/05 10:23:03;;;;;;;6.72;2.13;;;;;;;18.34;100.00;101161.75;5285264;28;20123;-73
2023/08/05 10:25:44;;;;;;;4.30;2.10;;;;;;;18.40;100.00;101171.78;5288669;28;20094;-73
2023/08/05 10:28:25;;;;;;;5.18;2.28;;;;;;;18.49;100.00;101166.97;5299745;27;20023;-74
2023/08/05 10:30:56;;;;;;;5.90;2.35;;;;;;;18.53;100.00;101162.78;5288841;28;20039;-73
2023/08/05 10:33:28;;;;;;;5.35;1.90;;;;;;;18.51;100.00;101156.72;5289221;28;20024;-73
2023/08/05 10:36:06;;;;;;;8.85;2.22;;;;;;;18.41;100.00;101162.56;5288975;28;20031;-73
2023/08/05 10:38:55;;;;;;;5.45;2.15;;;;;;;18.40;100.00;101162.78;5268727;28;20511;-73
2023/08/05 10:41:35;;;;;;;6.18;2.60;;;;;;;18.42;100.00;101153.38;5274528;28;20514;-73
2023/08/05 10:44:05;;;;;;;4.57;2.20;;;;;;;18.54;100.00;101157.13;5279811;28;20103;-73
2023/08/05 10:46:36;;;;;;;7.57;2.33;;;;;;;18.56;100.00;101159.63;5282518;28;20118;-73
2023/08/05 10:49:07;;;;;;;4.35;2.03;;;;;;;18.42;100.00;101160.69;5288062;27;20051;-73
2023/08/05 10:51:40;;;;;;;4.05;2.22;;;;;;;18.37;100.00;101151.31;5287739;28;20392;-73
2023/08/05 10:54:14;;;;;;;6.47;2.65;;;;;;;18.40;100.00;101150.03;5286699;28;20109;-73
2023/08/05 10:56:44;;;;;;;6.68;2.38;;;;;;;18.51;100.00;101141.25;5290273;27;20027;-73
2023/08/05 10:59:15;;;;;;;3.97;2.15;;;;;;;18.52;100.00;101129.31;5271692;28;20023;-73
2023/08/05 11:02:05;;;;;;;5.03;2.65;;;;;;;18.73;100.00;101132.91;5287681;28;20211;-73
2023/08/05 11:04:40;;;;;;;6.63;2.25;;;;;;;18.67;100.00;101129.09;5255567;28;20116;-73
2023/08/05 11:07:10;;;;;;;5.30;2.35;;;;;;;18.72;100.00;101118.44;5286989;28;20020;-73
2023/08/05 11:09:47;;;;;;;5.13;2.40;;;;;;;18.77;100.00;101096.06;5288477;27;20020;-73
2023/08/05 11:12:19;;;;;;;7.63;2.78;;;;;;;18.73;100.00;101097.56;5265165;28;20026;-73
2023/08/05 11:14:49;;;;;;;7.97;2.75;;;;;;;18.73;100.00;101098.41;5287569;27;20027;-73
2023/08/05 11:17:20;;;;;;;7.70;2.83;;;;;;;18.65;100.00;101104.03;5283776;28;20047;-73
2023/08/05 11:19:53;;;;;;;9.10;2.97;;;;;;;18.44;100.00;101104.28;5307578;27;20011;-73
2023/08/05 11:22:26;;;;;;;8.20;2.88;;;;;;;18.37;100.00;101094.28;5286159;27;20434;-73
2023/08/05 11:25:00;;;;;;;4.57;2.85;;;;;;;18.18;100.00;101094.28;5280795;28;20370;-73
2023/08/05 11:27:52;;;;;;;4.97;2.45;;;;;;;18.00;100.00;101090.31;5287253;27;20027;-73
2023/08/05 11:30:23;;;;;;;4.72;2.15;;;;;;;17.98;100.00;101072.59;5287357;27;20483;-73
2023/08/05 11:32:57;;;;;;;3.50;2.28;;;;;;;17.79;100.00;101068.81;5283832;27;20031;-73